sensor_id;sensor_type;location;lat;lon;timestamp;pressure;altitude;pressure_sealevel;temperature;humidity
57114;BME280;42994;51.606;9.988;2023-02-14T00:00:22;100959.47;;;0.00;100.00
57114;BME280;42994;51.606;9.988;2023-02-14T00:02:49;100954.03;;;0.03;100.00
57114;BME280;42994;51.606;9.988;2023-02-14T00:05:15;100951.22;;;-0.11;100.00
57114;BME280;42994;51.606;9.988;2023-02-14T00:07:42;100945.50;;;-0.02;100.00
57114;BME280;42994;51.606;9.988;2023-02-14T00:10:10;100948.00;;;0.01;100.00
57114;BME280;42994;51.606;9.988;2023-02-14T00:12:37;100947.66;;;0.07;100.00
57114;BME280;42994;51.606;9.988;2023-02-14T00:15:04;100957.31;;;0.08;100.00
57114;BME280;42994;51.606;9.988;2023-02-14T00:17:48;100966.31;;;0.04;100.00
57114;BME280;42994;51.606;9.988;2023-02-14T00:20:14;100962.66;;;-0.30;100.00
57114;BME280;42994;51.606;9.988;2023-02-14T00:22:42;100948.56;;;-0.29;100.00
57114;BME280;42994;51.606;9.988;2023-02-14T00:25:11;100952.44;;;-0.18;100.00
57114;BME280;42994;51.606;9.988;2023-02-14T00:27:38;100954.94;;;-0.15;100.00
57114;BME280;42994;51.606;9.988;2023-02-14T00:30:06;100948.25;;;-0.40;100.00
57114;BME280;42994;51.606;9.988;2023-02-14T00:32:32;100951.25;;;-0.67;100.00
57114;BME280;42994;51.606;9.988;2023-02-14T00:34:59;100954.31;;;-0.76;100.00
57114;BME280;42994;51.606;9.988;2023-02-14T00:37:26;100950.47;;;-0.69;100.00
57114;BME280;42994;51.606;9.988;2023-02-14T00:39:52;100942.78;;;-0.54;100.00
57114;BME280;42994;51.606;9.988;2023-02-14T00:42:20;100949.56;;;-0.31;100.00
57114;BME280;42994;51.606;9.988;2023-02-14T00:44:47;100951.84;;;-0.24;100.00
57114;BME280;42994;51.606;9.988;2023-02-14T00:47:14;100956.94;;;-0.38;100.00
57114;BME280;42994;51.606;9.988;2023-02-14T00:49:40;100948.38;;;-0.62;100.00
57114;BME280;42994;51.606;9.988;2023-02-14T00:52:07;100945.34;;;-0.91;100.00
57114;BME280;42994;51.606;9.988;2023-02-14T00:54:34;100945.28;;;-0.89;100.00
57114;BME280;42994;51.606;9.988;2023-02-14T00:57:00;100944.44;;;-0.71;100.00
57114;BME280;42994;51.606;9.988;2023-02-14T00:59:29;100955.34;;;-0.42;100.00
57114;BME280;42994;51.606;9.988;2023-02-14T01:01:55;100950.09;;;-0.61;100.00
57114;BME280;42994;51.606;9.988;2023-02-14T01:04:22;100946.34;;;-0.74;100.00
57114;BME280;42994;51.606;9.988;2023-02-14T01:06:49;100954.94;;;-0.90;100.00
57114;BME280;42994;51.606;9.988;2023-02-14T01:09:15;100955.28;;;-0.79;100.00
57114;BME280;42994;51.606;9.988;2023-02-14T01:11:42;100959.22;;;-0.87;100.00
57114;BME280;42994;51.606;9.988;2023-02-14T01:14:09;100954.47;;;-0.98;100.00
57114;BME280;42994;51.606;9.988;2023-02-14T01:16:37;100952.25;;;-1.28;100.00
57114;BME280;42994;51.606;9.988;2023-02-14T01:19:04;100947.75;;;-1.05;100.00
57114;BME280;42994;51.606;9.988;2023-02-14T01:21:32;100950.56;;;-0.89;100.00
57114;BME280;42994;51.606;9.988;2023-02-14T01:24:01;100957.59;;;-0.71;100.00
57114;BME280;42994;51.606;9.988;2023-02-14T01:26:28;100959.16;;;-0.67;100.00
57114;BME280;42994;51.606;9.988;2023-02-14T01:28:55;100952.16;;;-0.68;100.00
57114;BME280;42994;51.606;9.988;2023-02-14T01:31:24;100954.88;;;-0.88;100.00
57114;BME280;42994;51.606;9.988;2023-02-14T01:33:53;100958.06;;;-1.20;100.00
57114;BME280;42994;51.606;9.988;2023-02-14T01:36:22;100950.22;;;-1.21;100.00
57114;BME280;42994;51.606;9.988;2023-02-14T01:38:54;100955.06;;;-1.12;100.00
57114;BME280;42994;51.606;9.988;2023-02-14T01:41:22;100952.72;;;-0.99;100.00
57114;BME280;42994;51.606;9.988;2023-02-14T01:43:55;100949.97;;;-0.96;100.00
57114;BME280;42994;51.606;9.988;2023-02-14T01:46:24;100955.13;;;-1.13;100.00
57114;BME280;42994;51.606;9.988;2023-02-14T01:48:56;100946.75;;;-1.03;100.00
57114;BME280;42994;51.606;9.988;2023-02-14T01:51:25;100959.97;;;-1.04;100.00
57114;BME280;42994;51.606;9.988;2023-02-14T01:53:53;100959.63;;;-1.16;100.00
57114;BME280;42994;51.606;9.988;2023-02-14T01:56:24;100960.34;;;-1.12;100.00
57114;BME280;42994;51.606;9.988;2023-02-14T01:58:55;100956.31;;;-1.21;100.00
57114;BME280;42994;51.606;9.988;2023-02-14T02:01:24;100965.81;;;-1.17;100.00
57114;BME280;42994;51.606;9.988;2023-02-14T02:03:54;100959.25;;;-1.08;100.00
57114;BME280;42994;51.606;9.988;2023-02-14T02:06:25;100945.25;;;-1.08;100.00
57114;BME280;42994;51.606;9.988;2023-02-14T02:09:02;100944.34;;;-1.07;100.00
57114;BME280;42994;51.606;9.988;2023-02-14T02:11:31;100947.69;;;-1.04;100.00
57114;BME280;42994;51.606;9.988;2023-02-14T02:13:58;100945.91;;;-1.03;100.00
57114;BME280;42994;51.606;9.988;2023-02-14T02:16:34;100953.63;;;-0.99;100.00
57114;BME280;42994;51.606;9.988;2023-02-14T02:19:24;100941.28;;;-0.98;100.00
57114;BME280;42994;51.606;9.988;2023-02-14T02:25:08;100940.44;;;-0.99;100.00
57114;BME280;42994;51.606;9.988;2023-02-14T02:28:04;100930.53;;;-0.93;100.00
57114;BME280;42994;51.606;9.988;2023-02-14T02:30:51;100932.09;;;-1.08;100.00
57114;BME280;42994;51.606;9.988;2023-02-14T02:36:31;100922.13;;;-1.21;100.00
57114;BME280;42994;51.606;9.988;2023-02-14T02:39:14;100925.81;;;-1.25;100.00
57114;BME280;42994;51.606;9.988;2023-02-14T02:41:55;100924.84;;;-1.22;100.00
57114;BME280;42994;51.606;9.988;2023-02-14T02:44:29;100925.94;;;-1.07;100.00
57114;BME280;42994;51.606;9.988;2023-02-14T02:47:04;100918.09;;;-1.09;100.00
57114;BME280;42994;51.606;9.988;2023-02-14T02:49:40;100929.16;;;-1.21;100.00
57114;BME280;42994;51.606;9.988;2023-02-14T02:52:36;100919.09;;;-1.51;100.00
57114;BME280;42994;51.606;9.988;2023-02-14T02:55:26;100918.47;;;-1.37;100.00
57114;BME280;42994;51.606;9.988;2023-02-14T02:58:20;100917.50;;;-1.34;100.00
57114;BME280;42994;51.606;9.988;2023-02-14T03:00:48;100914.88;;;-1.34;100.00
57114;BME280;42994;51.606;9.988;2023-02-14T03:03:18;100929.03;;;-1.58;100.00
57114;BME280;42994;51.606;9.988;2023-02-14T03:06:03;100917.53;;;-1.55;100.00
57114;BME280;42994;51.606;9.988;2023-02-14T03:08:31;100917.69;;;-1.79;100.00
57114;BME280;42994;51.606;9.988;2023-02-14T03:10:58;100918.25;;;-1.92;100.00
57114;BME280;42994;51.606;9.988;2023-02-14T03:13:53;100908.09;;;-1.61;100.00
57114;BME280;42994;51.606;9.988;2023-02-14T03:16:30;100914.25;;;-1.81;100.00
57114;BME280;42994;51.606;9.988;2023-02-14T03:19:20;100914.16;;;-1.79;100.00
57114;BME280;42994;51.606;9.988;2023-02-14T03:21:53;100916.00;;;-1.61;100.00
57114;BME280;42994;51.606;9.988;2023-02-14T03:24:28;100908.56;;;-1.51;100.00
57114;BME280;42994;51.606;9.988;2023-02-14T03:27:05;100911.00;;;-1.46;100.00
57114;BME280;42994;51.606;9.988;2023-02-14T03:29:41;100911.09;;;-1.48;100.00
57114;BME280;42994;51.606;9.988;2023-02-14T03:32:13;100913.72;;;-1.48;100.00
57114;BME280;42994;51.606;9.988;2023-02-14T03:34:47;100907.78;;;-1.53;100.00
57114;BME280;42994;51.606;9.988;2023-02-14T03:37:20;100913.00;;;-1.51;100.00
57114;BME280;42994;51.606;9.988;2023-02-14T03:39:58;100910.28;;;-1.50;100.00
57114;BME280;42994;51.606;9.988;2023-02-14T03:42:31;100890.53;;;-1.59;100.00
57114;BME280;42994;51.606;9.988;2023-02-14T03:45:00;100891.34;;;-1.58;100.00
57114;BME280;42994;51.606;9.988;2023-02-14T03:47:31;100888.41;;;-1.71;100.00
57114;BME280;42994;51.606;9.988;2023-02-14T03:50:03;100892.53;;;-2.06;100.00
57114;BME280;42994;51.606;9.988;2023-02-14T03:52:32;100899.56;;;-1.86;100.00
57114;BME280;42994;51.606;9.988;2023-02-14T03:55:04;100893.28;;;-1.82;100.00
57114;BME280;42994;51.606;9.988;2023-02-14T03:57:37;100899.19;;;-1.77;100.00
57114;BME280;42994;51.606;9.988;2023-02-14T04:00:09;100896.38;;;-1.93;100.00
57114;BME280;42994;51.606;9.988;2023-02-14T04:02:40;100893.47;;;-1.87;100.00
57114;BME280;42994;51.606;9.988;2023-02-14T04:05:12;100888.59;;;-1.76;100.00
57114;BME280;42994;51.606;9.988;2023-02-14T04:07:43;100887.25;;;-1.84;100.00
57114;BME280;42994;51.606;9.988;2023-02-14T04:10:12;100883.47;;;-1.99;100.00
57114;BME280;42994;51.606;9.988;2023-02-14T04:12:38;100877.59;;;-2.04;100.00
57114;BME280;42994;51.606;9.988;2023-02-14T04:15:06;100877.09;;;-2.14;100.00
57114;BME280;42994;51.606;9.988;2023-02-14T04:17:33;100888.78;;;-2.21;100.00
57114;BME280;42994;51.606;9.988;2023-02-14T04:20:17;100877.88;;;-2.12;100.00
57114;BME280;42994;51.606;9.988;2023-02-14T04:22:44;100872.41;;;-2.06;100.00
57114;BME280;42994;51.606;9.988;2023-02-14T04:25:13;100876.47;;;-1.99;100.00
57114;BME280;42994;51.606;9.988;2023-02-14T04:27:40;100890.06;;;-2.09;100.00
57114;BME280;42994;51.606;9.988;2023-02-14T04:30:07;100880.78;;;-1.98;100.00
57114;BME280;42994;51.606;9.988;2023-02-14T04:32:34;100894.19;;;-2.04;100.00
57114;BME280;42994;51.606;9.988;2023-02-14T04:35:01;100890.06;;;-2.09;100.00
57114;BME280;42994;51.606;9.988;2023-02-14T04:37:28;100887.63;;;-2.14;100.00
57114;BME280;42994;51.606;9.988;2023-02-14T04:39:54;100886.38;;;-2.05;100.00
57114;BME280;42994;51.606;9.988;2023-02-14T04:42:41;100887.72;;;-1.95;100.00
57114;BME280;42994;51.606;9.988;2023-02-14T04:45:08;100883.28;;;-1.95;100.00
57114;BME280;42994;51.606;9.988;2023-02-14T04:47:35;100884.75;;;-1.87;100.00
57114;BME280;42994;51.606;9.988;2023-02-14T04:50:05;100887.56;;;-1.92;100.00
57114;BME280;42994;51.606;9.988;2023-02-14T04:52:32;100886.53;;;-1.88;100.00
57114;BME280;42994;51.606;9.988;2023-02-14T04:54:59;100883.69;;;-1.83;100.00
57114;BME280;42994;51.606;9.988;2023-02-14T04:57:25;100889.66;;;-2.00;100.00
57114;BME280;42994;51.606;9.988;2023-02-14T04:59:54;100881.00;;;-2.02;100.00
57114;BME280;42994;51.606;9.988;2023-02-14T05:02:20;100885.19;;;-1.98;100.00
57114;BME280;42994;51.606;9.988;2023-02-14T05:04:47;100883.16;;;-2.12;100.00
57114;BME280;42994;51.606;9.988;2023-02-14T05:07:13;100895.16;;;-2.06;100.00
57114;BME280;42994;51.606;9.988;2023-02-14T05:09:40;100891.63;;;-2.05;100.00
57114;BME280;42994;51.606;9.988;2023-02-14T05:12:07;100883.69;;;-2.04;100.00
57114;BME280;42994;51.606;9.988;2023-02-14T05:14:33;100889.91;;;-2.06;100.00
57114;BME280;42994;51.606;9.988;2023-02-14T05:17:02;100888.16;;;-2.06;100.00
57114;BME280;42994;51.606;9.988;2023-02-14T05:19:28;100883.09;;;-2.10;100.00
57114;BME280;42994;51.606;9.988;2023-02-14T05:21:55;100889.06;;;-2.07;100.00
57114;BME280;42994;51.606;9.988;2023-02-14T05:24:22;100887.56;;;-2.13;100.00
57114;BME280;42994;51.606;9.988;2023-02-14T05:26:48;100890.69;;;-2.25;100.00
57114;BME280;42994;51.606;9.988;2023-02-14T05:29:15;100888.72;;;-2.62;100.00
57114;BME280;42994;51.606;9.988;2023-02-14T05:31:42;100873.88;;;-2.85;100.00
57114;BME280;42994;51.606;9.988;2023-02-14T05:34:10;100871.06;;;-2.59;100.00
57114;BME280;42994;51.606;9.988;2023-02-14T05:36:36;100871.16;;;-2.40;100.00
57114;BME280;42994;51.606;9.988;2023-02-14T05:39:03;100874.50;;;-2.57;100.00
57114;BME280;42994;51.606;9.988;2023-02-14T05:41:30;100866.13;;;-2.44;100.00
57114;BME280;42994;51.606;9.988;2023-02-14T05:43:57;100875.66;;;-2.64;100.00
57114;BME280;42994;51.606;9.988;2023-02-14T05:46:23;100878.75;;;-2.76;100.00
57114;BME280;42994;51.606;9.988;2023-02-14T05:48:50;100876.56;;;-2.65;100.00
57114;BME280;42994;51.606;9.988;2023-02-14T05:51:18;100875.53;;;-2.61;100.00
57114;BME280;42994;51.606;9.988;2023-02-14T05:53:45;100881.31;;;-2.75;100.00
57114;BME280;42994;51.606;9.988;2023-02-14T05:56:12;100870.19;;;-2.59;100.00
57114;BME280;42994;51.606;9.988;2023-02-14T05:58:38;100872.34;;;-2.69;100.00
57114;BME280;42994;51.606;9.988;2023-02-14T06:01:05;100871.91;;;-2.58;100.00
57114;BME280;42994;51.606;9.988;2023-02-14T06:03:35;100870.41;;;-2.64;100.00
57114;BME280;42994;51.606;9.988;2023-02-14T06:06:02;100876.03;;;-2.73;100.00
57114;BME280;42994;51.606;9.988;2023-02-14T06:08:30;100873.44;;;-2.75;100.00
57114;BME280;42994;51.606;9.988;2023-02-14T06:10:56;100879.31;;;-2.68;100.00
57114;BME280;42994;51.606;9.988;2023-02-14T06:13:23;100878.91;;;-2.79;100.00
57114;BME280;42994;51.606;9.988;2023-02-14T06:15:50;100873.13;;;-2.67;100.00
57114;BME280;42994;51.606;9.988;2023-02-14T06:18:16;100878.69;;;-2.75;100.00
57114;BME280;42994;51.606;9.988;2023-02-14T06:20:43;100877.72;;;-2.72;100.00
57114;BME280;42994;51.606;9.988;2023-02-14T06:23:10;100881.16;;;-2.70;100.00
57114;BME280;42994;51.606;9.988;2023-02-14T06:25:38;100875.81;;;-2.68;100.00
57114;BME280;42994;51.606;9.988;2023-02-14T06:28:04;100881.69;;;-2.84;100.00
57114;BME280;42994;51.606;9.988;2023-02-14T06:30:31;100877.72;;;-2.72;100.00
57114;BME280;42994;51.606;9.988;2023-02-14T06:32:58;100885.34;;;-2.88;100.00
57114;BME280;42994;51.606;9.988;2023-02-14T06:35:24;100881.16;;;-2.70;100.00
57114;BME280;42994;51.606;9.988;2023-02-14T06:37:51;100879.53;;;-2.74;100.00
57114;BME280;42994;51.606;9.988;2023-02-14T06:40:18;100881.63;;;-2.82;100.00
57114;BME280;42994;51.606;9.988;2023-02-14T06:42:46;100877.09;;;-3.01;100.00
57114;BME280;42994;51.606;9.988;2023-02-14T06:45:13;100882.28;;;-2.99;100.00
57114;BME280;42994;51.606;9.988;2023-02-14T06:47:39;100882.28;;;-2.99;100.00
57114;BME280;42994;51.606;9.988;2023-02-14T06:50:07;100878.06;;;-3.03;100.00
57114;BME280;42994;51.606;9.988;2023-02-14T06:52:35;100888.03;;;-2.90;100.00
57114;BME280;42994;51.606;9.988;2023-02-14T06:55:02;100888.34;;;-2.75;100.00
57114;BME280;42994;51.606;9.988;2023-02-14T06:57:29;100893.91;;;-2.83;100.00
57114;BME280;42994;51.606;9.988;2023-02-14T06:59:57;100881.53;;;-2.79;100.00
57114;BME280;42994;51.606;9.988;2023-02-14T07:02:23;100888.66;;;-2.83;100.00
57114;BME280;42994;51.606;9.988;2023-02-14T07:04:50;100875.81;;;-2.68;100.00
57114;BME280;42994;51.606;9.988;2023-02-14T07:07:16;100887.00;;;-2.63;100.00
57114;BME280;42994;51.606;9.988;2023-02-14T07:09:43;100885.25;;;-2.63;100.00
57114;BME280;42994;51.606;9.988;2023-02-14T07:12:10;100887.56;;;-2.77;100.00
57114;BME280;42994;51.606;9.988;2023-02-14T07:14:36;100886.31;;;-2.68;100.00
57114;BME280;42994;51.606;9.988;2023-02-14T07:17:04;100882.38;;;-2.57;100.00
57114;BME280;42994;51.606;9.988;2023-02-14T07:19:31;100880.69;;;-2.59;100.00
57114;BME280;42994;51.606;9.988;2023-02-14T07:21:57;100886.88;;;-2.60;100.00
57114;BME280;42994;51.606;9.988;2023-02-14T07:24:25;100869.59;;;-2.88;100.00
57114;BME280;42994;51.606;9.988;2023-02-14T07:26:51;100885.41;;;-2.90;100.00
57114;BME280;42994;51.606;9.988;2023-02-14T07:29:18;100877.16;;;-2.80;100.00
57114;BME280;42994;51.606;9.988;2023-02-14T07:31:45;100872.56;;;-2.74;100.00
57114;BME280;42994;51.606;9.988;2023-02-14T07:34:13;100866.59;;;-3.01;100.00
57114;BME280;42994;51.606;9.988;2023-02-14T07:36:39;100869.34;;;-2.82;100.00
57114;BME280;42994;51.606;9.988;2023-02-14T07:39:06;100865.41;;;-2.70;100.00
57114;BME280;42994;51.606;9.988;2023-02-14T07:41:33;100859.22;;;-2.69;100.00
57114;BME280;42994;51.606;9.988;2023-02-14T07:43:59;100866.38;;;-2.73;100.00
57114;BME280;42994;51.606;9.988;2023-02-14T07:46:26;100863.56;;;-2.90;100.00
57114;BME280;42994;51.606;9.988;2023-02-14T07:48:52;100862.88;;;-2.95;100.00
57114;BME280;42994;51.606;9.988;2023-02-14T07:51:20;100863.47;;;-2.88;100.00
57114;BME280;42994;51.606;9.988;2023-02-14T07:53:47;100858.38;;;-2.92;100.00
57114;BME280;42994;51.606;9.988;2023-02-14T07:56:14;100854.22;;;-2.75;100.00
57114;BME280;42994;51.606;9.988;2023-02-14T07:58:40;100864.38;;;-2.88;100.00
57114;BME280;42994;51.606;9.988;2023-02-14T08:01:07;100868.25;;;-2.76;100.00
57114;BME280;42994;51.606;9.988;2023-02-14T08:03:34;100866.97;;;-2.66;100.00
57114;BME280;42994;51.606;9.988;2023-02-14T08:06:00;100867.13;;;-2.48;100.00
57114;BME280;42994;51.606;9.988;2023-02-14T08:08:30;100870.94;;;-2.56;100.00
57114;BME280;42994;51.606;9.988;2023-02-14T08:10:56;100867.81;;;-2.65;100.00
57114;BME280;42994;51.606;9.988;2023-02-14T08:13:23;100864.41;;;-2.67;100.00
57114;BME280;42994;51.606;9.988;2023-02-14T08:15:49;100855.84;;;-2.51;100.00
57114;BME280;42994;51.606;9.988;2023-02-14T08:18:35;100867.13;;;-2.48;100.00
57114;BME280;42994;51.606;9.988;2023-02-14T08:21:03;100866.66;;;-2.36;100.00
57114;BME280;42994;51.606;9.988;2023-02-14T08:23:31;100861.28;;;-2.33;100.00
57114;BME280;42994;51.606;9.988;2023-02-14T08:25:58;100864.44;;;-2.47;100.00
57114;BME280;42994;51.606;9.988;2023-02-14T08:28:25;100868.31;;;-2.34;100.00
57114;BME280;42994;51.606;9.988;2023-02-14T08:30:53;100869.72;;;-2.26;100.00
57114;BME280;42994;51.606;9.988;2023-02-14T08:33:20;100865.81;;;-2.16;100.00
57114;BME280;42994;51.606;9.988;2023-02-14T08:35:47;100864.03;;;-2.16;100.00
57114;BME280;42994;51.606;9.988;2023-02-14T08:38:14;100863.78;;;-2.09;100.00
57114;BME280;42994;51.606;9.988;2023-02-14T08:40:42;100871.34;;;-2.02;100.00
57114;BME280;42994;51.606;9.988;2023-02-14T08:43:10;100869.72;;;-2.04;100.00
57114;BME280;42994;51.606;9.988;2023-02-14T08:45:36;100859.97;;;-2.02;100.00
57114;BME280;42994;51.606;9.988;2023-02-14T08:48:06;100863.78;;;-1.89;100.00
57114;BME280;42994;51.606;9.988;2023-02-14T08:50:33;100853.94;;;-1.84;100.00
57114;BME280;42994;51.606;9.988;2023-02-14T08:53:00;100849.44;;;-1.82;100.00
57114;BME280;42994;51.606;9.988;2023-02-14T08:55:27;100845.91;;;-1.81;100.00
57114;BME280;42994;51.606;9.988;2023-02-14T08:57:55;100843.84;;;-1.74;100.00
57114;BME280;42994;51.606;9.988;2023-02-14T09:00:22;100848.25;;;-1.75;100.00
57114;BME280;42994;51.606;9.988;2023-02-14T09:02:50;100849.09;;;-1.74;100.00
57114;BME280;42994;51.606;9.988;2023-02-14T09:05:17;100844.94;;;-1.59;100.00
57114;BME280;42994;51.606;9.988;2023-02-14T09:07:43;100839.53;;;-1.56;100.00
57114;BME280;42994;51.606;9.988;2023-02-14T09:10:11;100831.31;;;-1.48;100.00
57114;BME280;42994;51.606;9.988;2023-02-14T09:12:38;100823.88;;;-1.39;100.00
57114;BME280;42994;51.606;9.988;2023-02-14T09:15:07;100828.19;;;-1.38;100.00
57114;BME280;42994;51.606;9.988;2023-02-14T09:17:34;100830.13;;;-1.22;100.00
57114;BME280;42994;51.606;9.988;2023-02-14T09:20:02;100832.09;;;-1.27;100.00
57114;BME280;42994;51.606;9.988;2023-02-14T09:22:31;100820.91;;;-1.13;100.00
57114;BME280;42994;51.606;9.988;2023-02-14T09:24:58;100815.94;;;-1.01;100.00
57114;BME280;42994;51.606;9.988;2023-02-14T09:27:24;100814.38;;;-0.86;100.00
57114;BME280;42994;51.606;9.988;2023-02-14T09:29:51;100810.41;;;-0.77;100.00
57114;BME280;42994;51.606;9.988;2023-02-14T09:32:19;100810.13;;;-0.71;100.00
57114;BME280;42994;51.606;9.988;2023-02-14T09:34:46;100812.94;;;-0.56;100.00
57114;BME280;42994;51.606;9.988;2023-02-14T09:37:30;100811.69;;;-0.32;100.00
57114;BME280;42994;51.606;9.988;2023-02-14T09:40:16;100800.81;;;-0.26;100.00
57114;BME280;42994;51.606;9.988;2023-02-14T09:42:52;100797.09;;;-0.04;100.00
57114;BME280;42994;51.606;9.988;2023-02-14T09:45:23;100799.56;;;-0.01;100.00
57114;BME280;42994;51.606;9.988;2023-02-14T09:47:55;100795.84;;;0.03;100.00
57114;BME280;42994;51.606;9.988;2023-02-14T09:50:25;100791.25;;;0.24;100.00
57114;BME280;42994;51.606;9.988;2023-02-14T09:52:56;100791.69;;;0.48;100.00
57114;BME280;42994;51.606;9.988;2023-02-14T09:55:26;100784.56;;;0.66;100.00
57114;BME280;42994;51.606;9.988;2023-02-14T09:58:02;100790.84;;;0.64;100.00
57114;BME280;42994;51.606;9.988;2023-02-14T10:00:34;100785.22;;;0.54;100.00
57114;BME280;42994;51.606;9.988;2023-02-14T10:03:08;100784.03;;;0.60;100.00
57114;BME280;42994;51.606;9.988;2023-02-14T10:05:38;100780.47;;;0.76;100.00
57114;BME280;42994;51.606;9.988;2023-02-14T10:08:21;100786.69;;;0.91;100.00
57114;BME280;42994;51.606;9.988;2023-02-14T10:10:58;100788.38;;;0.92;100.00
57114;BME280;42994;51.606;9.988;2023-02-14T10:13:32;100787.53;;;1.08;100.00
57114;BME280;42994;51.606;9.988;2023-02-14T10:16:04;100785.00;;;1.67;100.00
57114;BME280;42994;51.606;9.988;2023-02-14T10:18:39;100785.03;;;1.81;100.00
57114;BME280;42994;51.606;9.988;2023-02-14T10:21:10;100772.38;;;2.01;100.00
57114;BME280;42994;51.606;9.988;2023-02-14T10:23:40;100777.41;;;2.05;100.00
57114;BME280;42994;51.606;9.988;2023-02-14T10:26:10;100771.94;;;2.08;100.00
57114;BME280;42994;51.606;9.988;2023-02-14T10:28:42;100764.19;;;2.48;100.00
57114;BME280;42994;51.606;9.988;2023-02-14T10:31:21;100765.94;;;2.62;100.00
57114;BME280;42994;51.606;9.988;2023-02-14T10:33:53;100769.22;;;2.80;100.00
57114;BME280;42994;51.606;9.988;2023-02-14T10:36:47;100781.00;;;2.89;100.00
57114;BME280;42994;51.606;9.988;2023-02-14T10:39:28;100777.63;;;3.14;100.00
57114;BME280;42994;51.606;9.988;2023-02-14T10:42:03;100780.81;;;3.19;100.00
57114;BME280;42994;51.606;9.988;2023-02-14T10:44:48;100775.63;;;2.91;100.00
57114;BME280;42994;51.606;9.988;2023-02-14T10:47:30;100768.84;;;2.99;100.00
57114;BME280;42994;51.606;9.988;2023-02-14T10:50:10;100778.66;;;3.12;100.00
57114;BME280;42994;51.606;9.988;2023-02-14T10:56:43;100772.41;;;2.85;100.00
57114;BME280;42994;51.606;9.988;2023-02-14T10:59:17;100763.56;;;2.99;100.00
57114;BME280;42994;51.606;9.988;2023-02-14T11:02:17;100771.06;;;3.20;100.00
57114;BME280;42994;51.606;9.988;2023-02-14T11:04:46;100763.91;;;3.35;100.00
57114;BME280;42994;51.606;9.988;2023-02-14T11:13:57;100741.88;;;3.47;100.00
57114;BME280;42994;51.606;9.988;2023-02-14T11:16:31;100738.91;;;3.52;100.00
57114;BME280;42994;51.606;9.988;2023-02-14T11:19:29;100738.72;;;3.68;100.00
57114;BME280;42994;51.606;9.988;2023-02-14T11:22:04;100740.00;;;3.62;100.00
57114;BME280;42994;51.606;9.988;2023-02-14T11:25:01;100743.59;;;3.87;100.00
57114;BME280;42994;51.606;9.988;2023-02-14T11:27:29;100745.13;;;3.91;100.00
57114;BME280;42994;51.606;9.988;2023-02-14T11:29:57;100747.22;;;3.98;100.00
57114;BME280;42994;51.606;9.988;2023-02-14T11:32:28;100738.06;;;4.28;100.00
57114;BME280;42994;51.606;9.988;2023-02-14T11:34:59;100738.25;;;4.25;100.00
57114;BME280;42994;51.606;9.988;2023-02-14T11:37:27;100743.78;;;4.35;100.00
57114;BME280;42994;51.606;9.988;2023-02-14T11:39:57;100748.34;;;4.46;100.00
57114;BME280;42994;51.606;9.988;2023-02-14T11:42:39;100740.25;;;4.47;100.00
57114;BME280;42994;51.606;9.988;2023-02-14T11:45:25;100739.38;;;4.59;100.00
57114;BME280;42994;51.606;9.988;2023-02-14T11:48:06;100734.69;;;4.87;100.00
57114;BME280;42994;51.606;9.988;2023-02-14T11:50:34;100736.09;;;4.80;100.00
57114;BME280;42994;51.606;9.988;2023-02-14T11:53:01;100744.50;;;4.87;100.00
57114;BME280;42994;51.606;9.988;2023-02-14T11:55:31;100744.50;;;4.87;100.00
57114;BME280;42994;51.606;9.988;2023-02-14T11:58:02;100745.31;;;4.87;100.00
57114;BME280;42994;51.606;9.988;2023-02-14T12:00:30;100744.38;;;5.12;100.00
57114;BME280;42994;51.606;9.988;2023-02-14T12:02:59;100743.53;;;5.12;100.00
57114;BME280;42994;51.606;9.988;2023-02-14T12:05:48;100736.69;;;5.20;100.00
57114;BME280;42994;51.606;9.988;2023-02-14T12:08:23;100741.75;;;5.24;100.00
57114;BME280;42994;51.606;9.988;2023-02-14T12:11:01;100748.50;;;5.41;100.00
57114;BME280;42994;51.606;9.988;2023-02-14T12:13:29;100742.53;;;5.26;100.00
57114;BME280;42994;51.606;9.988;2023-02-14T12:15:57;100739.28;;;5.33;100.00
57114;BME280;42994;51.606;9.988;2023-02-14T12:18:37;100736.50;;;5.35;100.00
57114;BME280;42994;51.606;9.988;2023-02-14T12:21:35;100734.22;;;5.42;100.00
57114;BME280;42994;51.606;9.988;2023-02-14T12:24:09;100738.50;;;5.55;100.00
57114;BME280;42994;51.606;9.988;2023-02-14T12:26:43;100735.13;;;5.65;100.00
57114;BME280;42994;51.606;9.988;2023-02-14T12:29:20;100735.63;;;5.70;100.00
57114;BME280;42994;51.606;9.988;2023-02-14T12:31:51;100731.59;;;6.00;100.00
57114;BME280;42994;51.606;9.988;2023-02-14T12:34:19;100735.53;;;5.94;100.00
57114;BME280;42994;51.606;9.988;2023-02-14T12:37:04;100733.47;;;5.86;100.00
57114;BME280;42994;51.606;9.988;2023-02-14T12:39:37;100727.69;;;5.92;100.00
57114;BME280;42994;51.606;9.988;2023-02-14T12:42:17;100729.75;;;6.11;100.00
57114;BME280;42994;51.606;9.988;2023-02-14T12:44:55;100727.22;;;5.99;100.00
57114;BME280;42994;51.606;9.988;2023-02-14T12:47:32;100728.69;;;6.03;100.00
57114;BME280;42994;51.606;9.988;2023-02-14T12:50:19;100716.34;;;6.02;100.00
57114;BME280;42994;51.606;9.988;2023-02-14T12:53:07;100711.69;;;5.81;100.00
57114;BME280;42994;51.606;9.988;2023-02-14T12:55:50;100700.06;;;5.82;100.00
57114;BME280;42994;51.606;9.988;2023-02-14T12:58:26;100701.78;;;5.94;100.00
57114;BME280;42994;51.606;9.988;2023-02-14T13:01:05;100690.72;;;6.01;100.00
57114;BME280;42994;51.606;9.988;2023-02-14T13:03:50;100692.75;;;5.97;100.00
57114;BME280;42994;51.606;9.988;2023-02-14T13:06:28;100680.53;;;6.17;100.00
57114;BME280;42994;51.606;9.988;2023-02-14T13:09:14;100684.53;;;6.23;100.00
57114;BME280;42994;51.606;9.988;2023-02-14T13:11:54;100686.78;;;6.50;100.00
57114;BME280;42994;51.606;9.988;2023-02-14T13:14:49;100685.09;;;6.49;100.00
57114;BME280;42994;51.606;9.988;2023-02-14T13:17:24;100687.22;;;6.66;100.00
57114;BME280;42994;51.606;9.988;2023-02-14T13:20:05;100670.59;;;6.74;100.00